UAL220 KLAX-LTFM
Flight info
| Callsign | UAL220 |
|---|---|
| Flight time | N/A |
| Altitude | 31000 |
| Route | ORCKA5 LAS Q70 BLIPP Q842 WINEN DCT CKW DCT DDY DCT GCC/N0488F330 DCT DIK Q945 SEGAP DCT POPLR DCT 57N090W DCT BODRA DCT 65N070W/M083F350 DCT DARUB DCT 67N050W 67N040W 66N030W DCT INDES DCT IPTON/N0470F350 DCT SVA/N0471F370 DCT SONAL DCT BINKA DCT ADVAB DCT KELEL DCT KEKED DCT BADOR DCT TIMUR L606 GASRU T390 RILEX |
| Aircraft | B77W/H-SDE1E2E3FGHIJ2J3J4J5M1RWXY/LB1D1 |
Departure
| Time | 2026-04-25 21:58 |
|---|---|
| Airport | Los Angeles International Airport (KLAX) |
Arrival
| Time | N/A |
|---|---|
| Airport | İstanbul Airport (LTFM) |
| Time | Latitude | Longitude | Altitude | Speed | Heading |
|---|---|---|---|---|---|
| 2026-04-25 21:25 | 33.94025 | -118.40914 | 130 ft | 0 kts | 264° |
| 2026-04-25 21:43 | 33.94027 | -118.40901 | 130 ft | 2 kts | 256° |
| 2026-04-25 21:43 | 33.94031 | -118.40882 | 130 ft | 2 kts | 252° |
| 2026-04-25 21:43 | 33.94037 | -118.40863 | 135 ft | 2 kts | 239° |
| 2026-04-25 21:43 | 33.94047 | -118.40847 | 128 ft | 2 kts | 221° |
| 2026-04-25 21:44 | 33.94060 | -118.40836 | 130 ft | 2 kts | 200° |
| 2026-04-25 21:44 | 33.94076 | -118.40832 | 130 ft | 2 kts | 182° |
| 2026-04-25 21:44 | 33.94088 | -118.40832 | 128 ft | 0 kts | 175° |
| 2026-04-25 21:48 | 33.94087 | -118.40832 | 130 ft | 1 kts | 175° |
| 2026-04-25 21:48 | 33.94075 | -118.40831 | 128 ft | 3 kts | 174° |
| 2026-04-25 21:48 | 33.94047 | -118.40827 | 128 ft | 5 kts | 173° |
| 2026-04-25 21:49 | 33.94006 | -118.40820 | 130 ft | 7 kts | 172° |
| 2026-04-25 21:49 | 33.93952 | -118.40812 | 126 ft | 9 kts | 173° |
| 2026-04-25 21:49 | 33.93892 | -118.40783 | 130 ft | 10 kts | 140° |
| 2026-04-25 21:49 | 33.93834 | -118.40728 | 125 ft | 11 kts | 142° |
| 2026-04-25 21:50 | 33.93814 | -118.40637 | 130 ft | 12 kts | 86° |
| 2026-04-25 21:50 | 33.93823 | -118.40540 | 129 ft | 12 kts | 83° |
| 2026-04-25 21:50 | 33.93833 | -118.40443 | 126 ft | 12 kts | 83° |
| 2026-04-25 21:50 | 33.93840 | -118.40378 | 128 ft | 12 kts | 83° |
| 2026-04-25 21:51 | 33.93853 | -118.40248 | 129 ft | 12 kts | 83° |
| 2026-04-25 21:51 | 33.93863 | -118.40151 | 126 ft | 12 kts | 83° |
| 2026-04-25 21:51 | 33.93872 | -118.40057 | 130 ft | 12 kts | 83° |
| 2026-04-25 21:51 | 33.93882 | -118.39960 | 130 ft | 13 kts | 83° |
| 2026-04-25 21:52 | 33.93894 | -118.39848 | 126 ft | 14 kts | 83° |
| 2026-04-25 21:52 | 33.93906 | -118.39725 | 133 ft | 16 kts | 83° |
| 2026-04-25 21:52 | 33.93920 | -118.39593 | 130 ft | 18 kts | 83° |
| 2026-04-25 21:52 | 33.93933 | -118.39456 | 126 ft | 19 kts | 83° |
| 2026-04-25 21:53 | 33.93949 | -118.39303 | 127 ft | 20 kts | 82° |
| 2026-04-25 21:53 | 33.93964 | -118.39162 | 126 ft | 21 kts | 83° |
| 2026-04-25 21:53 | 33.93982 | -118.38988 | 129 ft | 21 kts | 83° |
| 2026-04-25 21:53 | 33.94000 | -118.38811 | 126 ft | 22 kts | 83° |
| 2026-04-25 21:54 | 33.94018 | -118.38633 | 129 ft | 21 kts | 83° |
| 2026-04-25 21:54 | 33.94031 | -118.38503 | 128 ft | 9 kts | 83° |
| 2026-04-25 21:54 | 33.94038 | -118.38438 | 136 ft | 8 kts | 82° |
| 2026-04-25 21:54 | 33.94045 | -118.38371 | 130 ft | 9 kts | 82° |
| 2026-04-25 21:55 | 33.94054 | -118.38288 | 130 ft | 11 kts | 82° |
| 2026-04-25 21:55 | 33.94065 | -118.38189 | 130 ft | 13 kts | 84° |
| 2026-04-25 21:55 | 33.94075 | -118.38074 | 130 ft | 15 kts | 84° |
| 2026-04-25 21:55 | 33.94021 | -118.37999 | 126 ft | 13 kts | 174° |
| 2026-04-25 21:56 | 33.93984 | -118.38056 | 130 ft | 1 kts | 262° |
| 2026-04-25 21:57 | 33.93983 | -118.38060 | 130 ft | 4 kts | 262° |
| 2026-04-25 21:57 | 33.93966 | -118.38209 | 127 ft | 39 kts | 263° |
| 2026-04-25 21:57 | 33.93911 | -118.38737 | 127 ft | 101 kts | 263° |
| 2026-04-25 21:58 | 33.93799 | -118.39828 | 127 ft | 159 kts | 263° |
| 2026-04-25 21:58 | 33.93643 | -118.41328 | 231 ft | 193 kts | 262° |
| 2026-04-25 21:58 | 33.93476 | -118.42978 | 582 ft | 203 kts | 261° |
| 2026-04-25 21:58 | 33.93239 | -118.44673 | 1086 ft | 208 kts | 260° |
| 2026-04-25 21:59 | 33.93120 | -118.46416 | 1661 ft | 212 kts | 273° |
| 2026-04-25 21:59 | 33.93633 | -118.48149 | 1859 ft | 235 kts | 305° |
| 2026-04-25 21:59 | 33.94926 | -118.49467 | 2059 ft | 256 kts | 334° |
| 2026-04-25 22:00 | 33.98521 | -118.50192 | 2980 ft | 267 kts | 336° |
| 2026-04-25 22:00 | 34.00027 | -118.51442 | 3621 ft | 264 kts | 307° |
| 2026-04-25 22:00 | 34.00913 | -118.53355 | 4254 ft | 264 kts | 290° |
| 2026-04-25 22:00 | 34.01513 | -118.55457 | 4876 ft | 267 kts | 286° |
| 2026-04-25 22:01 | 34.02062 | -118.57601 | 5527 ft | 268 kts | 284° |
| 2026-04-25 22:01 | 34.02447 | -118.59805 | 6094 ft | 271 kts | 278° |
| 2026-04-25 22:01 | 34.02703 | -118.62059 | 6677 ft | 271 kts | 271° |
| 2026-04-25 22:01 | 34.02591 | -118.63560 | 6982 ft | 274 kts | 253° |
| 2026-04-25 22:02 | 34.01227 | -118.66115 | 7737 ft | 277 kts | 217° |
| 2026-04-25 22:02 | 33.99511 | -118.67156 | 8275 ft | 280 kts | 197° |
| 2026-04-25 22:02 | 33.97611 | -118.67724 | 8816 ft | 283 kts | 193° |
| 2026-04-25 22:02 | 33.95667 | -118.68188 | 9393 ft | 286 kts | 192° |
| 2026-04-25 22:03 | 33.93716 | -118.68616 | 10071 ft | 283 kts | 192° |
| 2026-04-25 22:03 | 33.91761 | -118.69010 | 10604 ft | 289 kts | 192° |
| 2026-04-25 22:03 | 33.89706 | -118.69394 | 10764 ft | 309 kts | 192° |
| 2026-04-25 22:03 | 33.87515 | -118.69791 | 10928 ft | 328 kts | 192° |
| 2026-04-25 22:04 | 33.85189 | -118.70209 | 11113 ft | 347 kts | 192° |